sensor_id;sensor_type;location;lat;lon;timestamp;P1;durP1;ratioP1;P2;durP2;ratioP2
13805;SDS011;6974;53.606;9.872;2022-12-07T00:00:34;14.43;;;12.23;;
13805;SDS011;6974;53.606;9.872;2022-12-07T00:03:01;14.03;;;12.43;;
13805;SDS011;6974;53.606;9.872;2022-12-07T00:05:29;14.10;;;11.97;;
13805;SDS011;6974;53.606;9.872;2022-12-07T00:07:56;13.70;;;12.30;;
13805;SDS011;6974;53.606;9.872;2022-12-07T00:10:25;16.30;;;13.03;;
13805;SDS011;6974;53.606;9.872;2022-12-07T00:12:52;16.00;;;13.13;;
13805;SDS011;6974;53.606;9.872;2022-12-07T00:15:18;15.83;;;13.03;;
13805;SDS011;6974;53.606;9.872;2022-12-07T00:17:45;13.30;;;11.90;;
13805;SDS011;6974;53.606;9.872;2022-12-07T00:20:12;14.43;;;12.93;;
13805;SDS011;6974;53.606;9.872;2022-12-07T00:22:39;14.27;;;12.30;;
13805;SDS011;6974;53.606;9.872;2022-12-07T00:25:06;17.70;;;12.47;;
13805;SDS011;6974;53.606;9.872;2022-12-07T00:27:34;17.97;;;12.33;;
13805;SDS011;6974;53.606;9.872;2022-12-07T00:30:01;14.57;;;11.90;;
13805;SDS011;6974;53.606;9.872;2022-12-07T00:32:29;12.57;;;10.57;;
13805;SDS011;6974;53.606;9.872;2022-12-07T00:34:56;13.30;;;11.40;;
13805;SDS011;6974;53.606;9.872;2022-12-07T00:37:23;14.57;;;11.53;;
13805;SDS011;6974;53.606;9.872;2022-12-07T00:39:49;11.53;;;10.33;;
13805;SDS011;6974;53.606;9.872;2022-12-07T00:42:16;13.30;;;11.40;;
13805;SDS011;6974;53.606;9.872;2022-12-07T00:44:44;11.93;;;10.57;;
13805;SDS011;6974;53.606;9.872;2022-12-07T00:47:11;12.47;;;10.63;;
13805;SDS011;6974;53.606;9.872;2022-12-07T00:49:38;14.60;;;10.57;;
13805;SDS011;6974;53.606;9.872;2022-12-07T00:52:05;13.37;;;10.60;;
13805;SDS011;6974;53.606;9.872;2022-12-07T00:54:32;12.27;;;10.27;;
13805;SDS011;6974;53.606;9.872;2022-12-07T00:56:59;11.03;;;9.83;;
13805;SDS011;6974;53.606;9.872;2022-12-07T00:59:26;11.93;;;9.60;;
13805;SDS011;6974;53.606;9.872;2022-12-07T01:01:54;11.90;;;9.10;;
13805;SDS011;6974;53.606;9.872;2022-12-07T01:04:21;11.20;;;9.37;;
13805;SDS011;6974;53.606;9.872;2022-12-07T01:06:48;15.43;;;9.63;;
13805;SDS011;6974;53.606;9.872;2022-12-07T01:09:14;9.67;;;8.33;;
13805;SDS011;6974;53.606;9.872;2022-12-07T01:11:41;10.27;;;8.70;;
13805;SDS011;6974;53.606;9.872;2022-12-07T01:14:08;11.77;;;9.27;;
13805;SDS011;6974;53.606;9.872;2022-12-07T01:16:35;10.67;;;8.60;;
13805;SDS011;6974;53.606;9.872;2022-12-07T01:19:06;11.50;;;8.50;;
13805;SDS011;6974;53.606;9.872;2022-12-07T01:21:33;12.23;;;8.70;;
13805;SDS011;6974;53.606;9.872;2022-12-07T01:24:02;9.87;;;8.17;;
13805;SDS011;6974;53.606;9.872;2022-12-07T01:26:30;12.27;;;8.80;;
13805;SDS011;6974;53.606;9.872;2022-12-07T01:28:57;9.53;;;7.63;;
13805;SDS011;6974;53.606;9.872;2022-12-07T01:31:25;11.60;;;8.60;;
13805;SDS011;6974;53.606;9.872;2022-12-07T01:33:55;11.90;;;7.97;;
13805;SDS011;6974;53.606;9.872;2022-12-07T01:36:24;10.33;;;7.97;;
13805;SDS011;6974;53.606;9.872;2022-12-07T01:38:54;10.33;;;8.27;;
13805;SDS011;6974;53.606;9.872;2022-12-07T01:41:22;10.10;;;8.00;;
13805;SDS011;6974;53.606;9.872;2022-12-07T01:44:08;11.80;;;9.00;;
13805;SDS011;6974;53.606;9.872;2022-12-07T01:46:44;10.60;;;8.90;;
13805;SDS011;6974;53.606;9.872;2022-12-07T01:49:13;13.00;;;8.50;;
13805;SDS011;6974;53.606;9.872;2022-12-07T01:51:46;9.70;;;7.93;;
13805;SDS011;6974;53.606;9.872;2022-12-07T01:54:15;9.93;;;7.33;;
13805;SDS011;6974;53.606;9.872;2022-12-07T01:56:44;10.03;;;7.87;;
13805;SDS011;6974;53.606;9.872;2022-12-07T01:59:16;13.67;;;7.83;;
13805;SDS011;6974;53.606;9.872;2022-12-07T02:01:46;10.97;;;8.40;;
13805;SDS011;6974;53.606;9.872;2022-12-07T02:04:13;9.70;;;7.83;;
13805;SDS011;6974;53.606;9.872;2022-12-07T02:06:40;10.00;;;7.33;;
13805;SDS011;6974;53.606;9.872;2022-12-07T02:09:10;11.27;;;7.70;;
13805;SDS011;6974;53.606;9.872;2022-12-07T02:11:38;9.87;;;7.50;;
13805;SDS011;6974;53.606;9.872;2022-12-07T02:14:06;13.37;;;6.87;;
13805;SDS011;6974;53.606;9.872;2022-12-07T02:16:35;9.97;;;7.30;;
13805;SDS011;6974;53.606;9.872;2022-12-07T02:22:02;7.87;;;6.93;;
13805;SDS011;6974;53.606;9.872;2022-12-07T02:24:47;10.77;;;6.33;;
13805;SDS011;6974;53.606;9.872;2022-12-07T02:27:36;9.77;;;6.07;;
13805;SDS011;6974;53.606;9.872;2022-12-07T02:30:12;7.47;;;6.03;;
13805;SDS011;6974;53.606;9.872;2022-12-07T02:32:42;7.57;;;6.07;;
13805;SDS011;6974;53.606;9.872;2022-12-07T02:35:15;9.93;;;5.77;;
13805;SDS011;6974;53.606;9.872;2022-12-07T02:37:48;6.17;;;4.80;;
13805;SDS011;6974;53.606;9.872;2022-12-07T02:40:25;6.33;;;4.87;;
13805;SDS011;6974;53.606;9.872;2022-12-07T02:42:58;8.27;;;4.97;;
13805;SDS011;6974;53.606;9.872;2022-12-07T02:45:30;6.63;;;4.87;;
13805;SDS011;6974;53.606;9.872;2022-12-07T02:47:59;6.67;;;4.17;;
13805;SDS011;6974;53.606;9.872;2022-12-07T02:50:28;6.30;;;4.00;;
13805;SDS011;6974;53.606;9.872;2022-12-07T02:52:55;5.80;;;3.90;;
13805;SDS011;6974;53.606;9.872;2022-12-07T02:55:23;8.37;;;3.73;;
13805;SDS011;6974;53.606;9.872;2022-12-07T02:57:59;6.17;;;3.67;;
13805;SDS011;6974;53.606;9.872;2022-12-07T03:00:36;6.27;;;3.10;;
13805;SDS011;6974;53.606;9.872;2022-12-07T03:03:10;3.73;;;2.90;;
13805;SDS011;6974;53.606;9.872;2022-12-07T03:05:46;5.83;;;2.70;;
13805;SDS011;6974;53.606;9.872;2022-12-07T03:08:24;7.63;;;2.47;;
13805;SDS011;6974;53.606;9.872;2022-12-07T03:10:58;3.67;;;3.10;;
13805;SDS011;6974;53.606;9.872;2022-12-07T03:13:28;2.53;;;2.13;;
13805;SDS011;6974;53.606;9.872;2022-12-07T03:16:02;3.23;;;2.10;;
13805;SDS011;6974;53.606;9.872;2022-12-07T03:18:36;2.20;;;2.00;;
13805;SDS011;6974;53.606;9.872;2022-12-07T03:21:06;3.93;;;2.00;;
13805;SDS011;6974;53.606;9.872;2022-12-07T03:23:38;2.80;;;2.10;;
13805;SDS011;6974;53.606;9.872;2022-12-07T03:26:08;4.87;;;2.03;;
13805;SDS011;6974;53.606;9.872;2022-12-07T03:28:39;5.63;;;2.33;;
13805;SDS011;6974;53.606;9.872;2022-12-07T03:31:11;5.23;;;1.93;;
13805;SDS011;6974;53.606;9.872;2022-12-07T03:33:43;8.40;;;2.00;;
13805;SDS011;6974;53.606;9.872;2022-12-07T03:36:15;5.80;;;2.60;;
13805;SDS011;6974;53.606;9.872;2022-12-07T03:38:48;3.43;;;2.00;;
13805;SDS011;6974;53.606;9.872;2022-12-07T03:41:20;5.30;;;2.07;;
13805;SDS011;6974;53.606;9.872;2022-12-07T03:43:50;4.77;;;2.07;;
13805;SDS011;6974;53.606;9.872;2022-12-07T03:46:20;5.63;;;2.23;;
13805;SDS011;6974;53.606;9.872;2022-12-07T03:48:56;3.90;;;2.40;;
13805;SDS011;6974;53.606;9.872;2022-12-07T03:51:28;4.00;;;1.90;;
13805;SDS011;6974;53.606;9.872;2022-12-07T03:54:05;4.20;;;1.90;;
13805;SDS011;6974;53.606;9.872;2022-12-07T03:56:36;4.23;;;2.10;;
13805;SDS011;6974;53.606;9.872;2022-12-07T03:59:05;4.63;;;2.10;;
13805;SDS011;6974;53.606;9.872;2022-12-07T04:01:34;4.30;;;2.00;;
13805;SDS011;6974;53.606;9.872;2022-12-07T04:04:01;5.40;;;2.40;;
13805;SDS011;6974;53.606;9.872;2022-12-07T04:06:28;4.13;;;2.27;;
13805;SDS011;6974;53.606;9.872;2022-12-07T04:08:55;4.43;;;2.10;;
13805;SDS011;6974;53.606;9.872;2022-12-07T04:11:21;5.10;;;2.40;;
13805;SDS011;6974;53.606;9.872;2022-12-07T04:13:48;3.83;;;2.10;;
13805;SDS011;6974;53.606;9.872;2022-12-07T04:16:34;2.83;;;2.13;;
13805;SDS011;6974;53.606;9.872;2022-12-07T04:19:01;7.57;;;2.53;;
13805;SDS011;6974;53.606;9.872;2022-12-07T04:21:28;6.83;;;2.30;;
13805;SDS011;6974;53.606;9.872;2022-12-07T04:23:55;4.83;;;2.50;;
13805;SDS011;6974;53.606;9.872;2022-12-07T04:26:21;3.63;;;2.83;;
13805;SDS011;6974;53.606;9.872;2022-12-07T04:28:48;4.43;;;2.60;;
13805;SDS011;6974;53.606;9.872;2022-12-07T04:31:15;3.30;;;2.30;;
13805;SDS011;6974;53.606;9.872;2022-12-07T04:33:43;4.03;;;2.40;;
13805;SDS011;6974;53.606;9.872;2022-12-07T04:36:10;4.30;;;2.70;;
13805;SDS011;6974;53.606;9.872;2022-12-07T04:38:37;3.93;;;2.60;;
13805;SDS011;6974;53.606;9.872;2022-12-07T04:41:04;3.47;;;2.20;;
13805;SDS011;6974;53.606;9.872;2022-12-07T04:43:32;3.90;;;2.90;;
13805;SDS011;6974;53.606;9.872;2022-12-07T04:45:59;5.60;;;2.83;;
13805;SDS011;6974;53.606;9.872;2022-12-07T04:48:26;3.37;;;2.30;;
13805;SDS011;6974;53.606;9.872;2022-12-07T04:50:54;7.23;;;2.53;;
13805;SDS011;6974;53.606;9.872;2022-12-07T04:53:21;2.80;;;2.50;;
13805;SDS011;6974;53.606;9.872;2022-12-07T04:55:48;4.00;;;2.60;;
13805;SDS011;6974;53.606;9.872;2022-12-07T04:58:15;3.60;;;2.40;;
13805;SDS011;6974;53.606;9.872;2022-12-07T05:00:42;3.60;;;2.40;;
13805;SDS011;6974;53.606;9.872;2022-12-07T05:03:08;4.03;;;2.50;;
13805;SDS011;6974;53.606;9.872;2022-12-07T05:05:35;4.57;;;2.80;;
13805;SDS011;6974;53.606;9.872;2022-12-07T05:08:03;3.60;;;2.40;;
13805;SDS011;6974;53.606;9.872;2022-12-07T05:10:30;6.27;;;3.10;;
13805;SDS011;6974;53.606;9.872;2022-12-07T05:12:57;7.83;;;2.77;;
13805;SDS011;6974;53.606;9.872;2022-12-07T05:15:24;4.47;;;2.90;;
13805;SDS011;6974;53.606;9.872;2022-12-07T05:17:51;4.00;;;2.87;;
13805;SDS011;6974;53.606;9.872;2022-12-07T05:20:18;3.97;;;3.00;;
13805;SDS011;6974;53.606;9.872;2022-12-07T05:22:45;2.93;;;2.43;;
13805;SDS011;6974;53.606;9.872;2022-12-07T05:25:13;5.50;;;2.67;;
13805;SDS011;6974;53.606;9.872;2022-12-07T05:27:40;3.63;;;2.57;;
13805;SDS011;6974;53.606;9.872;2022-12-07T05:30:07;4.70;;;2.57;;
13805;SDS011;6974;53.606;9.872;2022-12-07T05:32:35;2.70;;;2.40;;
13805;SDS011;6974;53.606;9.872;2022-12-07T05:35:02;5.00;;;2.80;;
13805;SDS011;6974;53.606;9.872;2022-12-07T05:37:29;3.87;;;2.47;;
13805;SDS011;6974;53.606;9.872;2022-12-07T05:39:56;3.43;;;2.57;;
13805;SDS011;6974;53.606;9.872;2022-12-07T05:42:24;4.23;;;2.73;;
13805;SDS011;6974;53.606;9.872;2022-12-07T05:44:51;3.70;;;2.50;;
13805;SDS011;6974;53.606;9.872;2022-12-07T05:47:18;3.40;;;3.00;;
13805;SDS011;6974;53.606;9.872;2022-12-07T05:49:45;3.20;;;2.73;;
13805;SDS011;6974;53.606;9.872;2022-12-07T05:52:12;4.20;;;3.03;;
13805;SDS011;6974;53.606;9.872;2022-12-07T05:54:39;6.37;;;3.00;;
13805;SDS011;6974;53.606;9.872;2022-12-07T05:57:06;5.33;;;2.87;;
13805;SDS011;6974;53.606;9.872;2022-12-07T05:59:34;6.27;;;4.60;;
13805;SDS011;6974;53.606;9.872;2022-12-07T06:02:00;6.13;;;3.53;;
13805;SDS011;6974;53.606;9.872;2022-12-07T06:04:29;4.20;;;2.90;;
13805;SDS011;6974;53.606;9.872;2022-12-07T06:06:57;4.47;;;2.83;;
13805;SDS011;6974;53.606;9.872;2022-12-07T06:09:25;4.63;;;2.47;;
13805;SDS011;6974;53.606;9.872;2022-12-07T06:11:53;4.97;;;3.03;;
13805;SDS011;6974;53.606;9.872;2022-12-07T06:14:39;4.73;;;2.80;;
13805;SDS011;6974;53.606;9.872;2022-12-07T06:17:06;3.83;;;3.10;;
13805;SDS011;6974;53.606;9.872;2022-12-07T06:19:33;4.20;;;3.07;;
13805;SDS011;6974;53.606;9.872;2022-12-07T06:22:01;4.20;;;3.17;;
13805;SDS011;6974;53.606;9.872;2022-12-07T06:24:29;5.07;;;3.53;;
13805;SDS011;6974;53.606;9.872;2022-12-07T06:26:56;3.57;;;2.40;;
13805;SDS011;6974;53.606;9.872;2022-12-07T06:29:24;4.73;;;2.90;;
13805;SDS011;6974;53.606;9.872;2022-12-07T06:31:52;5.53;;;3.03;;
13805;SDS011;6974;53.606;9.872;2022-12-07T06:34:20;4.33;;;2.80;;
13805;SDS011;6974;53.606;9.872;2022-12-07T06:36:48;5.87;;;3.00;;
13805;SDS011;6974;53.606;9.872;2022-12-07T06:39:18;7.23;;;2.90;;
13805;SDS011;6974;53.606;9.872;2022-12-07T06:41:45;7.07;;;3.03;;
13805;SDS011;6974;53.606;9.872;2022-12-07T06:44:12;6.23;;;2.87;;
13805;SDS011;6974;53.606;9.872;2022-12-07T06:46:39;4.63;;;2.63;;
13805;SDS011;6974;53.606;9.872;2022-12-07T06:49:07;4.73;;;2.90;;
13805;SDS011;6974;53.606;9.872;2022-12-07T06:51:34;5.73;;;2.70;;
13805;SDS011;6974;53.606;9.872;2022-12-07T06:54:05;6.80;;;2.50;;
13805;SDS011;6974;53.606;9.872;2022-12-07T06:56:32;4.17;;;2.70;;
13805;SDS011;6974;53.606;9.872;2022-12-07T06:58:59;4.57;;;2.27;;
13805;SDS011;6974;53.606;9.872;2022-12-07T07:01:26;4.70;;;2.10;;
13805;SDS011;6974;53.606;9.872;2022-12-07T07:03:53;7.73;;;2.40;;
13805;SDS011;6974;53.606;9.872;2022-12-07T07:06:21;3.57;;;2.17;;
13805;SDS011;6974;53.606;9.872;2022-12-07T07:08:49;6.30;;;2.30;;
13805;SDS011;6974;53.606;9.872;2022-12-07T07:11:16;4.57;;;2.00;;
13805;SDS011;6974;53.606;9.872;2022-12-07T07:13:43;6.87;;;2.53;;
13805;SDS011;6974;53.606;9.872;2022-12-07T07:16:11;2.57;;;1.93;;
13805;SDS011;6974;53.606;9.872;2022-12-07T07:18:38;6.10;;;2.00;;
13805;SDS011;6974;53.606;9.872;2022-12-07T07:21:05;3.63;;;2.07;;
13805;SDS011;6974;53.606;9.872;2022-12-07T07:23:33;3.43;;;2.13;;
13805;SDS011;6974;53.606;9.872;2022-12-07T07:26:00;2.80;;;2.10;;
13805;SDS011;6974;53.606;9.872;2022-12-07T07:28:27;3.50;;;2.40;;
13805;SDS011;6974;53.606;9.872;2022-12-07T07:30:54;3.40;;;2.47;;
13805;SDS011;6974;53.606;9.872;2022-12-07T07:33:21;4.37;;;2.23;;
13805;SDS011;6974;53.606;9.872;2022-12-07T07:35:48;5.77;;;2.50;;
13805;SDS011;6974;53.606;9.872;2022-12-07T07:38:14;2.37;;;2.00;;
13805;SDS011;6974;53.606;9.872;2022-12-07T07:40:43;3.40;;;1.97;;
13805;SDS011;6974;53.606;9.872;2022-12-07T07:43:10;3.43;;;2.20;;
13805;SDS011;6974;53.606;9.872;2022-12-07T07:45:36;5.47;;;2.30;;
13805;SDS011;6974;53.606;9.872;2022-12-07T07:48:03;3.20;;;2.07;;
13805;SDS011;6974;53.606;9.872;2022-12-07T07:50:31;3.80;;;2.00;;
13805;SDS011;6974;53.606;9.872;2022-12-07T07:52:57;3.60;;;1.50;;
13805;SDS011;6974;53.606;9.872;2022-12-07T07:55:24;3.77;;;1.77;;
13805;SDS011;6974;53.606;9.872;2022-12-07T07:57:53;4.63;;;2.10;;
13805;SDS011;6974;53.606;9.872;2022-12-07T08:00:20;2.00;;;1.80;;
13805;SDS011;6974;53.606;9.872;2022-12-07T08:02:48;5.57;;;1.73;;
13805;SDS011;6974;53.606;9.872;2022-12-07T08:05:15;4.13;;;2.03;;
13805;SDS011;6974;53.606;9.872;2022-12-07T08:07:42;2.90;;;1.53;;
13805;SDS011;6974;53.606;9.872;2022-12-07T08:10:10;4.77;;;2.10;;
13805;SDS011;6974;53.606;9.872;2022-12-07T08:12:38;4.83;;;1.80;;
13805;SDS011;6974;53.606;9.872;2022-12-07T08:15:29;6.43;;;1.90;;
13805;SDS011;6974;53.606;9.872;2022-12-07T08:17:56;5.17;;;2.17;;
13805;SDS011;6974;53.606;9.872;2022-12-07T08:20:23;3.70;;;1.90;;
13805;SDS011;6974;53.606;9.872;2022-12-07T08:22:51;3.93;;;2.10;;
13805;SDS011;6974;53.606;9.872;2022-12-07T08:25:18;3.00;;;1.80;;
13805;SDS011;6974;53.606;9.872;2022-12-07T08:27:45;4.23;;;1.90;;
13805;SDS011;6974;53.606;9.872;2022-12-07T08:30:13;3.67;;;1.80;;
13805;SDS011;6974;53.606;9.872;2022-12-07T08:32:41;3.77;;;1.80;;
13805;SDS011;6974;53.606;9.872;2022-12-07T08:35:10;5.53;;;1.87;;
13805;SDS011;6974;53.606;9.872;2022-12-07T08:37:37;5.57;;;2.27;;
13805;SDS011;6974;53.606;9.872;2022-12-07T08:40:04;2.67;;;2.10;;
13805;SDS011;6974;53.606;9.872;2022-12-07T08:42:32;4.50;;;2.13;;
13805;SDS011;6974;53.606;9.872;2022-12-07T08:45:05;4.47;;;2.40;;
13805;SDS011;6974;53.606;9.872;2022-12-07T08:47:34;5.47;;;2.30;;
13805;SDS011;6974;53.606;9.872;2022-12-07T08:50:03;6.43;;;2.20;;
13805;SDS011;6974;53.606;9.872;2022-12-07T08:52:33;9.23;;;2.73;;
13805;SDS011;6974;53.606;9.872;2022-12-07T08:55:01;4.93;;;2.03;;
13805;SDS011;6974;53.606;9.872;2022-12-07T08:57:28;3.90;;;2.00;;
13805;SDS011;6974;53.606;9.872;2022-12-07T08:59:56;5.07;;;2.00;;
13805;SDS011;6974;53.606;9.872;2022-12-07T09:02:24;5.00;;;2.13;;
13805;SDS011;6974;53.606;9.872;2022-12-07T09:04:51;5.57;;;2.00;;
13805;SDS011;6974;53.606;9.872;2022-12-07T09:07:19;3.40;;;2.20;;
13805;SDS011;6974;53.606;9.872;2022-12-07T09:09:46;6.17;;;2.37;;
13805;SDS011;6974;53.606;9.872;2022-12-07T09:12:13;5.87;;;2.03;;
13805;SDS011;6974;53.606;9.872;2022-12-07T09:14:39;2.70;;;1.63;;
13805;SDS011;6974;53.606;9.872;2022-12-07T09:17:07;5.57;;;2.23;;
13805;SDS011;6974;53.606;9.872;2022-12-07T09:19:35;4.90;;;2.30;;
13805;SDS011;6974;53.606;9.872;2022-12-07T09:22:02;6.20;;;2.37;;
13805;SDS011;6974;53.606;9.872;2022-12-07T09:24:32;9.07;;;2.57;;
13805;SDS011;6974;53.606;9.872;2022-12-07T09:26:59;6.73;;;2.13;;
13805;SDS011;6974;53.606;9.872;2022-12-07T09:29:25;5.23;;;2.23;;
13805;SDS011;6974;53.606;9.872;2022-12-07T09:31:52;5.43;;;2.50;;
13805;SDS011;6974;53.606;9.872;2022-12-07T09:34:19;4.90;;;2.43;;
13805;SDS011;6974;53.606;9.872;2022-12-07T09:36:46;6.97;;;2.73;;
13805;SDS011;6974;53.606;9.872;2022-12-07T09:39:13;4.60;;;2.37;;
13805;SDS011;6974;53.606;9.872;2022-12-07T09:41:42;7.47;;;2.57;;
13805;SDS011;6974;53.606;9.872;2022-12-07T09:44:11;5.00;;;2.60;;
13805;SDS011;6974;53.606;9.872;2022-12-07T09:46:40;5.70;;;2.70;;
13805;SDS011;6974;53.606;9.872;2022-12-07T09:49:10;3.90;;;2.33;;
13805;SDS011;6974;53.606;9.872;2022-12-07T09:51:41;5.13;;;2.67;;
13805;SDS011;6974;53.606;9.872;2022-12-07T09:54:08;5.07;;;2.43;;
13805;SDS011;6974;53.606;9.872;2022-12-07T09:56:39;5.43;;;2.33;;
13805;SDS011;6974;53.606;9.872;2022-12-07T09:59:12;5.40;;;2.23;;
13805;SDS011;6974;53.606;9.872;2022-12-07T10:01:42;4.37;;;2.40;;
13805;SDS011;6974;53.606;9.872;2022-12-07T10:04:11;5.90;;;2.43;;
13805;SDS011;6974;53.606;9.872;2022-12-07T10:06:42;6.67;;;2.40;;
13805;SDS011;6974;53.606;9.872;2022-12-07T10:09:10;6.73;;;2.00;;
13805;SDS011;6974;53.606;9.872;2022-12-07T10:14:33;4.13;;;1.90;;
13805;SDS011;6974;53.606;9.872;2022-12-07T10:17:01;3.97;;;2.40;;
13805;SDS011;6974;53.606;9.872;2022-12-07T10:19:29;4.47;;;1.90;;
13805;SDS011;6974;53.606;9.872;2022-12-07T10:22:02;4.50;;;1.90;;
13805;SDS011;6974;53.606;9.872;2022-12-07T10:24:31;5.70;;;1.90;;
13805;SDS011;6974;53.606;9.872;2022-12-07T10:26:58;4.10;;;1.90;;
13805;SDS011;6974;53.606;9.872;2022-12-07T10:29:28;4.27;;;1.63;;
13805;SDS011;6974;53.606;9.872;2022-12-07T10:31:59;4.80;;;1.70;;
13805;SDS011;6974;53.606;9.872;2022-12-07T10:34:28;5.50;;;1.70;;
13805;SDS011;6974;53.606;9.872;2022-12-07T10:37:15;8.67;;;2.20;;
13805;SDS011;6974;53.606;9.872;2022-12-07T10:39:45;2.93;;;1.70;;
13805;SDS011;6974;53.606;9.872;2022-12-07T10:42:17;3.40;;;2.27;;
13805;SDS011;6974;53.606;9.872;2022-12-07T10:44:45;5.40;;;1.70;;
13805;SDS011;6974;53.606;9.872;2022-12-07T10:47:16;6.43;;;1.73;;
13805;SDS011;6974;53.606;9.872;2022-12-07T10:52:53;4.60;;;1.90;;
13805;SDS011;6974;53.606;9.872;2022-12-07T10:55:53;6.20;;;1.87;;
13805;SDS011;6974;53.606;9.872;2022-12-07T10:58:31;5.40;;;2.30;;
13805;SDS011;6974;53.606;9.872;2022-12-07T11:01:13;6.33;;;1.93;;
13805;SDS011;6974;53.606;9.872;2022-12-07T11:03:50;4.13;;;1.70;;
13805;SDS011;6974;53.606;9.872;2022-12-07T11:06:34;5.37;;;2.03;;
13805;SDS011;6974;53.606;9.872;2022-12-07T11:09:18;6.70;;;1.93;;
13805;SDS011;6974;53.606;9.872;2022-12-07T11:12:05;6.43;;;1.90;;
13805;SDS011;6974;53.606;9.872;2022-12-07T11:14:40;6.17;;;2.30;;
13805;SDS011;6974;53.606;9.872;2022-12-07T11:17:17;5.30;;;2.13;;
13805;SDS011;6974;53.606;9.872;2022-12-07T11:19:54;4.73;;;1.70;;
13805;SDS011;6974;53.606;9.872;2022-12-07T11:22:31;6.37;;;2.03;;
13805;SDS011;6974;53.606;9.872;2022-12-07T11:25:13;7.30;;;2.60;;
13805;SDS011;6974;53.606;9.872;2022-12-07T11:27:44;4.33;;;2.30;;
13805;SDS011;6974;53.606;9.872;2022-12-07T11:30:18;4.63;;;2.10;;
13805;SDS011;6974;53.606;9.872;2022-12-07T11:35:45;10.10;;;2.40;;
13805;SDS011;6974;53.606;9.872;2022-12-07T11:38:19;6.37;;;2.33;;
13805;SDS011;6974;53.606;9.872;2022-12-07T11:40:50;6.17;;;2.40;;
13805;SDS011;6974;53.606;9.872;2022-12-07T11:43:37;6.97;;;2.20;;
13805;SDS011;6974;53.606;9.872;2022-12-07T11:46:16;4.83;;;2.43;;
13805;SDS011;6974;53.606;9.872;2022-12-07T11:48:45;4.40;;;2.33;;
13805;SDS011;6974;53.606;9.872;2022-12-07T11:51:20;3.20;;;1.80;;
13805;SDS011;6974;53.606;9.872;2022-12-07T11:53:49;6.17;;;2.30;;
13805;SDS011;6974;53.606;9.872;2022-12-07T11:56:21;6.60;;;2.63;;
13805;SDS011;6974;53.606;9.872;2022-12-07T11:58:51;7.83;;;2.33;;
13805;SDS011;6974;53.606;9.872;2022-12-07T12:01:31;5.77;;;2.10;;
13805;SDS011;6974;53.606;9.872;2022-12-07T12:04:07;6.60;;;2.10;;
13805;SDS011;6974;53.606;9.872;2022-12-07T12:06:47;6.33;;;2.17;;
13805;SDS011;6974;53.606;9.872;2022-12-07T12:09:15;9.30;;;2.10;;
13805;SDS011;6974;53.606;9.872;2022-12-07T12:11:50;7.77;;;2.33;;
13805;SDS011;6974;53.606;9.872;2022-12-07T12:14:37;5.60;;;2.40;;
13805;SDS011;6974;53.606;9.872;2022-12-07T12:17:21;10.53;;;2.20;;
13805;SDS011;6974;53.606;9.872;2022-12-07T12:20:01;6.00;;;2.73;;
13805;SDS011;6974;53.606;9.872;2022-12-07T12:22:35;4.90;;;1.70;;
13805;SDS011;6974;53.606;9.872;2022-12-07T12:25:06;5.93;;;2.33;;
13805;SDS011;6974;53.606;9.872;2022-12-07T12:27:42;6.33;;;1.97;;
13805;SDS011;6974;53.606;9.872;2022-12-07T12:30:24;8.50;;;3.00;;
13805;SDS011;6974;53.606;9.872;2022-12-07T12:33:00;4.73;;;2.30;;
13805;SDS011;6974;53.606;9.872;2022-12-07T12:35:33;6.43;;;2.40;;
13805;SDS011;6974;53.606;9.872;2022-12-07T12:41:08;4.73;;;2.20;;
13805;SDS011;6974;53.606;9.872;2022-12-07T12:47:40;5.40;;;2.13;;
13805;SDS011;6974;53.606;9.872;2022-12-07T12:50:29;7.67;;;2.30;;
13805;SDS011;6974;53.606;9.872;2022-12-07T12:53:05;8.33;;;2.40;;
13805;SDS011;6974;53.606;9.872;2022-12-07T12:55:45;12.63;;;2.27;;
13805;SDS011;6974;53.606;9.872;2022-12-07T12:58:41;4.53;;;2.00;;
13805;SDS011;6974;53.606;9.872;2022-12-07T13:04:21;7.73;;;2.23;;
13805;SDS011;6974;53.606;9.872;2022-12-07T13:07:13;8.13;;;2.13;;
13805;SDS011;6974;53.606;9.872;2022-12-07T13:10:25;5.07;;;2.17;;
13805;SDS011;6974;53.606;9.872;2022-12-07T13:13:02;5.90;;;2.07;;
13805;SDS011;6974;53.606;9.872;2022-12-07T13:15:33;8.07;;;1.93;;
13805;SDS011;6974;53.606;9.872;2022-12-07T13:18:04;7.50;;;1.97;;
13805;SDS011;6974;53.606;9.872;2022-12-07T13:20:49;6.20;;;2.23;;
13805;SDS011;6974;53.606;9.872;2022-12-07T13:23:19;4.03;;;2.00;;
13805;SDS011;6974;53.606;9.872;2022-12-07T13:28:43;4.83;;;2.00;;
13805;SDS011;6974;53.606;9.872;2022-12-07T13:31:15;4.63;;;2.20;;
13805;SDS011;6974;53.606;9.872;2022-12-07T13:33:52;4.97;;;1.73;;
13805;SDS011;6974;53.606;9.872;2022-12-07T13:36:20;9.17;;;1.90;;
13805;SDS011;6974;53.606;9.872;2022-12-07T13:38:50;7.70;;;1.70;;
13805;SDS011;6974;53.606;9.872;2022-12-07T13:41:19;5.80;;;1.97;;
13805;SDS011;6974;53.606;9.872;2022-12-07T13:43:58;5.90;;;1.87;;
13805;SDS011;6974;53.606;9.872;2022-12-07T13:46:33;6.20;;;2.00;;
13805;SDS011;6974;53.606;9.872;2022-12-07T13:49:15;4.70;;;2.17;;
13805;SDS011;6974;53.606;9.872;2022-12-07T13:51:44;5.33;;;1.70;;
13805;SDS011;6974;53.606;9.872;2022-12-07T13:54:11;3.50;;;1.73;;
13805;SDS011;6974;53.606;9.872;2022-12-07T13:56:40;6.30;;;2.07;;
13805;SDS011;6974;53.606;9.872;2022-12-07T13:59:10;7.70;;;2.00;;
13805;SDS011;6974;53.606;9.872;2022-12-07T14:01:42;4.10;;;1.80;;
13805;SDS011;6974;53.606;9.872;2022-12-07T14:07:00;3.70;;;1.50;;
13805;SDS011;6974;53.606;9.872;2022-12-07T14:09:52;4.70;;;1.73;;
13805;SDS011;6974;53.606;9.872;2022-12-07T14:12:23;5.67;;;1.50;;
13805;SDS011;6974;53.606;9.872;2022-12-07T14:14:51;4.43;;;1.60;;
13805;SDS011;6974;53.606;9.872;2022-12-07T14:17:21;6.53;;;1.50;;
13805;SDS011;6974;53.606;9.872;2022-12-07T14:19:50;9.10;;;1.73;;
13805;SDS011;6974;53.606;9.872;2022-12-07T14:22:24;4.63;;;1.53;;
13805;SDS011;6974;53.606;9.872;2022-12-07T14:27:50;3.73;;;1.60;;
13805;SDS011;6974;53.606;9.872;2022-12-07T14:30:21;5.53;;;1.63;;
13805;SDS011;6974;53.606;9.872;2022-12-07T14:32:51;3.70;;;1.60;;
13805;SDS011;6974;53.606;9.872;2022-12-07T14:35:20;5.80;;;1.80;;
13805;SDS011;6974;53.606;9.872;2022-12-07T14:37:47;3.93;;;1.80;;
13805;SDS011;6974;53.606;9.872;2022-12-07T14:40:16;6.40;;;2.03;;
13805;SDS011;6974;53.606;9.872;2022-12-07T14:42:44;5.10;;;1.87;;
13805;SDS011;6974;53.606;9.872;2022-12-07T14:45:13;4.30;;;1.70;;
13805;SDS011;6974;53.606;9.872;2022-12-07T14:47:42;3.23;;;1.70;;
13805;SDS011;6974;53.606;9.872;2022-12-07T14:50:13;4.70;;;1.50;;
13805;SDS011;6974;53.606;9.872;2022-12-07T14:52:41;4.90;;;1.90;;
13805;SDS011;6974;53.606;9.872;2022-12-07T14:55:13;5.83;;;1.93;;
13805;SDS011;6974;53.606;9.872;2022-12-07T14:57:42;3.47;;;1.77;;
13805;SDS011;6974;53.606;9.872;2022-12-07T15:00:13;5.47;;;1.70;;
13805;SDS011;6974;53.606;9.872;2022-12-07T15:02:42;3.83;;;1.50;;
13805;SDS011;6974;53.606;9.872;2022-12-07T15:05:09;6.17;;;1.70;;
13805;SDS011;6974;53.606;9.872;2022-12-07T15:07:37;1.80;;;1.50;;
13805;SDS011;6974;53.606;9.872;2022-12-07T15:10:05;2.60;;;1.97;;
13805;SDS011;6974;53.606;9.872;2022-12-07T15:12:32;5.37;;;1.70;;
13805;SDS011;6974;53.606;9.872;2022-12-07T15:14:59;3.93;;;1.83;;
13805;SDS011;6974;53.606;9.872;2022-12-07T15:17:27;5.77;;;2.10;;
13805;SDS011;6974;53.606;9.872;2022-12-07T15:19:54;4.37;;;1.87;;
13805;SDS011;6974;53.606;9.872;2022-12-07T15:22:21;3.53;;;2.00;;
13805;SDS011;6974;53.606;9.872;2022-12-07T15:24:49;4.77;;;2.10;;
13805;SDS011;6974;53.606;9.872;2022-12-07T15:27:16;3.73;;;2.10;;
13805;SDS011;6974;53.606;9.872;2022-12-07T15:29:43;7.40;;;3.00;;
13805;SDS011;6974;53.606;9.872;2022-12-07T15:32:10;6.87;;;2.80;;
13805;SDS011;6974;53.606;9.872;2022-12-07T15:34:36;2.43;;;1.90;;
13805;SDS011;6974;53.606;9.872;2022-12-07T15:37:03;6.50;;;2.23;;
13805;SDS011;6974;53.606;9.872;2022-12-07T15:39:31;6.47;;;2.37;;
13805;SDS011;6974;53.606;9.872;2022-12-07T15:41:59;7.30;;;2.40;;
13805;SDS011;6974;53.606;9.872;2022-12-07T15:44:27;6.87;;;2.53;;
13805;SDS011;6974;53.606;9.872;2022-12-07T15:47:11;9.60;;;2.83;;